• Join FlightAware (Why Join?)
  • Login
  • US Flag 
01:14PM EDT


 

Airport Tracker/Info


-or-


 

Live Flight TrackerFlight Track Log ✈ UAL906 ✈ 20-Apr-2013 ✈ KORD - EDDM / MUC

Flight Track Log - Related Links

Times and Time Zones

All times are in EDT time to prevent confusion due to time zone crossing. See the UAL906 flight status page for this flight to view local times or setup timezone preferences in your user account.

Time Position Orientation Groundspeed Altitude Reporting Facility
EDT Latitude Longitude Course Direction KTS MPH feet Rate Location/Type
07:13PM 42.0070 -87.8970 37° Northeast 162 186 700  Level FlightAware
07:13PM 42.0130 -87.8840 58° Northeast 157 181 1,400 2,700 Climbing FlightAware
07:13PM 42.0130 -87.8800 90° East 161 185 1,600 1,320 Climbing FlightAware
07:14PM 42.0140 -87.8380 88° East 212 244 2,300 1,440 Climbing FlightAware
07:14PM 42.0140 -87.8190 90° East 225 259 2,800 1,980 Climbing FlightAware
07:14PM 42.0170 -87.7750 85° East 248 285 3,800 2,100 Climbing FlightAware
07:15PM 42.0240 -87.7520 68° East 259 298 4,400 2,520 Climbing FlightAware
07:15PM 42.0380 -87.7170 62° Northeast 272 313 5,500 3,000 Climbing FlightAware
07:15PM 42.0480 -87.6930 61° Northeast 275 316 6,400 3,300 Climbing FlightAware
07:16PM 42.0650 -87.6490 62° Northeast 273 314 8,000 2,940 Climbing FlightAware
07:16PM 42.0790 -87.6170 59° Northeast 275 316 9,100 2,640 Climbing FlightAware
07:17PM 42.1040 -87.5530 62° Northeast 285 328 10,900 2,520 Climbing FlightAware
07:18PM 42.1330 -87.4750 63° Northeast 309 356 12,700 1,620 Climbing FlightAware
07:18PM 42.1450 -87.3860 80° East 364 419 13,400 1,080 Climbing FlightAware
07:19PM 42.1510 -87.2950 85° East 396 456 14,300 1,620 Climbing FlightAware
07:20PM 42.1580 -87.1910 85° East 419 482 15,600 2,100 Climbing FlightAware
07:20PM 42.1670 -87.0710 84° East 429 494 17,300 2,160 Climbing FlightAware
07:21PM 42.1750 -86.9450 85° East 442 509 18,900 1,980 Climbing FlightAware
07:22PM 42.1830 -86.8280 85° East 452 520 20,300 1,800 Climbing FlightAware
07:23PM 42.1910 -86.6860 86° East 465 535 21,800 1,680 Climbing FlightAware
07:23PM 42.1990 -86.5640 85° East 476 548 22,900 1,500 Climbing FlightAware
07:24PM 42.2060 -86.4490 85° East 487 560 23,800 1,440 Climbing FlightAware
07:25PM 42.2150 -86.3010 85° East 497 572 25,000 1,500 Climbing FlightAware
07:25PM 42.2220 -86.1860 85° East 503 579 26,000 1,380 Climbing FlightAware
07:26PM 42.2290 -86.0620 86° East 511 588 26,900 1,380 Climbing FlightAware
07:27PM 42.2370 -85.9140 86° East 516 594 28,000 1,500 Climbing FlightAware
07:28PM 42.2450 -85.7760 85° East 516 594 29,200 1,620 Climbing FlightAware
07:28PM 42.2520 -85.6420 86° East 514 592 30,300 1,620 Climbing FlightAware
07:29PM 42.2590 -85.5170 86° East 511 588 31,400 1,500 Climbing FlightAware
07:30PM 42.2660 -85.3690 86° East 508 585 32,500 1,080 Climbing FlightAware
07:30PM 42.2720 -85.2510 86° East 512 589 33,000 360 Climbing FlightAware
07:31PM 42.2780 -85.1140 87° East 516 594 33,000  Level FlightAware
07:32PM 42.2870 -84.9430 86° East 516 594 33,000  Level FlightAware
07:33PM 42.3010 -84.7960 83° East 511 588 33,000  Level FlightAware
07:33PM 42.3310 -84.6540 74° East 509 586 33,000  Level FlightAware
07:34PM 42.3570 -84.5370 73° East 506 582 33,000  Level FlightAware
07:35PM 42.3850 -84.4120 73° East 504 580 33,000  Level FlightAware
07:35PM 42.4110 -84.2920 74° East 502 578 33,000  Level FlightAware
07:36PM 42.4390 -84.1680 73° East 498 573 33,000  Level FlightAware
07:37PM 42.4610 -84.0700 73° East 497 572 33,000  Level FlightAware
07:38PM 42.4950 -83.9150 73° East 496 571 33,000  Level FlightAware
07:38PM 42.5230 -83.7900 73° East 497 572 33,000  Level FlightAware
07:39PM 42.5510 -83.6560 74° East 497 572 33,000  Level FlightAware
07:40PM 42.5780 -83.5350 73° East 498 573 33,000  Level FlightAware
07:40PM 42.6060 -83.4040 74° East 500 575 33,000  Level FlightAware
07:41PM 42.6310 -83.2860 74° East 503 579 33,000  Level FlightAware
07:42PM 42.6590 -83.1550 74° East 504 580 33,000  Level FlightAware
07:43PM 42.6920 -83.0010 74° East 507 583 33,000  Level FlightAware
07:43PM 42.7180 -82.8740 74° East 510 587 33,000  Level FlightAware
07:44PM 42.7440 -82.7490 74° East 514 592 33,000  Level FlightAware
07:45PM 42.7750 -82.6000 74° East 518 596 33,000  Level FlightAware
07:45PM 42.7950 -82.5030 74° East 519 597 33,000  Level FlightAware
07:46PM 42.8320 -82.3180 75° East 523 602 33,000  Level FlightAware
07:47PM 42.8590 -82.1860 74° East 524 603 33,000  Level FlightAware
07:48PM 42.8810 -82.0760 75° East 524 603 33,000  Level FlightAware
07:49PM 42.9170 -81.8930 75° East 521 600 33,000  Level FlightAware
07:49PM 42.9380 -81.7860 75° East 519 597 33,000  Level FlightAware
07:50PM 42.9580 -81.6860 75° East 517 595 33,000  Level FlightAware
07:51PM 42.9880 -81.5290 75° East 514 592 33,000  Level FlightAware
07:51PM 43.0150 -81.3900 75° East 511 588 33,000  Level FlightAware
07:52PM 43.0430 -81.2430 75° East 508 585 33,000  Level FlightAware
07:53PM 43.0750 -81.1280 69° East 502 578 33,000  Level FlightAware
07:53PM 43.1250 -81.0150 59° Northeast 498 573 33,000  Level FlightAware
07:54PM 43.1710 -80.9150 58° Northeast 497 572 33,000  Level FlightAware
07:55PM 43.2310 -80.7880 57° Northeast 495 570 33,000  Level FlightAware
07:56PM 43.2880 -80.6660 57° Northeast 496 571 33,000  Level FlightAware
07:56PM 43.3430 -80.5470 58° Northeast 497 572 33,000  Level FlightAware
07:57PM 43.3990 -80.4260 57° Northeast 498 573 33,000  Level FlightAware
07:58PM 43.4480 -80.3190 58° Northeast 499 574 33,000  Level FlightAware
07:58PM 43.4970 -80.2110 58° Northeast 500 575 33,000  Level FlightAware
07:59PM 43.5460 -80.1030 58° Northeast 502 578 33,000  Level FlightAware
08:00PM 43.6010 -79.9800 58° Northeast 503 579 33,000  Level FlightAware
08:00PM 43.6500 -79.8720 58° Northeast 504 580 33,000  Level FlightAware
08:01PM 43.7060 -79.7470 58° Northeast 506 582 33,000  Level FlightAware
08:02PM 43.7560 -79.6370 58° Northeast 507 583 33,000  Level FlightAware
08:02PM 43.7980 -79.5410 59° Northeast 508 585 33,000  Level FlightAware
08:03PM 43.8410 -79.4450 58° Northeast 509 586 33,000  Level FlightAware
08:04PM 43.8820 -79.3540 58° Northeast 511 588 33,000  Level FlightAware
08:04PM 43.9370 -79.2290 59° Northeast 512 589 33,000  Level FlightAware
08:05PM 43.9930 -79.1020 58° Northeast 513 590 33,000  Level FlightAware
08:06PM 44.0490 -78.9740 59° Northeast 513 590 33,000  Level FlightAware
08:06PM 44.0920 -78.8760 59° Northeast 515 593 33,000  Level FlightAware
08:07PM 44.1410 -78.7630 59° Northeast 514 592 33,000  Level FlightAware
08:08PM 44.1890 -78.6510 59° Northeast 515 593 33,000  Level FlightAware
08:09PM 44.2450 -78.5210 59° Northeast 514 592 33,000  Level FlightAware
08:09PM 44.2930 -78.4110 59° Northeast 514 592 33,000  Level FlightAware
08:10PM 44.3430 -78.2940 59° Northeast 514 592 33,000  Level FlightAware
08:10PM 44.3800 -78.2080 59° Northeast 514 592 33,000  Level FlightAware
08:11PM 44.4340 -78.0800 59° Northeast 514 592 33,000  Level FlightAware
08:12PM 44.4830 -77.9650 59° Northeast 513 590 33,000  Level FlightAware
08:12PM 44.5310 -77.8510 59° Northeast 513 590 33,000  Level FlightAware
08:13PM 44.5840 -77.7250 59° Northeast 512 589 33,000  Level FlightAware
08:14PM 44.6320 -77.6090 60° Northeast 511 588 33,000  Level FlightAware
08:15PM 44.6800 -77.4940 60° Northeast 511 588 33,000  Level FlightAware
08:15PM 44.7310 -77.3690 60° Northeast 511 588 33,000  Level FlightAware
08:16PM 44.7760 -77.2610 60° Northeast 511 588 33,000  Level FlightAware
08:17PM 44.8340 -77.1200 60° Northeast 511 588 33,000  Level FlightAware
08:17PM 44.8800 -77.0070 60° Northeast 512 589 33,000  Level FlightAware
08:18PM 44.9310 -76.8830 60° Northeast 511 588 33,000  Level FlightAware
08:19PM 44.9800 -76.7630 60° Northeast 512 589 33,000  Level FlightAware
08:19PM 45.0270 -76.6450 61° Northeast 512 589 33,000  Level FlightAware
08:20PM 45.0720 -76.5330 60° Northeast 514 592 33,000  Level FlightAware
08:21PM 45.1280 -76.3950 60° Northeast 514 592 33,000  Level FlightAware
08:22PM 45.1740 -76.2790 61° Northeast 517 595 33,000  Level FlightAware
08:22PM 45.2270 -76.1470 60° Northeast 518 596 33,000  Level FlightAware
08:23PM 45.2730 -76.0290 61° Northeast 518 596 33,000  Level FlightAware
08:24PM 45.3170 -75.9170 61° Northeast 521 600 33,000  Level FlightAware
08:24PM 45.3620 -75.8020 61° Northeast 522 601 33,000  Level FlightAware
08:25PM 45.4260 -75.6420 60° Northeast 525 604 33,000  Level FlightAware
08:26PM 45.4780 -75.5080 61° Northeast 528 608 33,000  Level FlightAware
08:26PM 45.5250 -75.3850 61° Northeast 530 610 33,000  Level FlightAware
08:27PM 45.5800 -75.2430 61° Northeast 533 613 33,000  Level FlightAware
08:28PM 45.6270 -75.1210 61° Northeast 537 618 33,000  Level FlightAware
08:29PM 45.6750 -74.9960 61° Northeast 538 619 33,000  Level FlightAware
08:29PM 45.7280 -74.8570 61° Northeast 541 623 33,000  Level FlightAware
08:30PM 45.7760 -74.7300 62° Northeast 544 626 33,000  Level FlightAware
08:31PM 45.8300 -74.5860 62° Northeast 546 628 33,000  Level FlightAware
08:31PM 45.8770 -74.4630 61° Northeast 548 631 33,000  Level FlightAware
08:32PM 45.9350 -74.3350 57° Northeast 553 636 33,000  Level FlightAware
08:33PM 46.0060 -74.2110 50° Northeast 556 640 33,000  Level FlightAware
08:33PM 46.0720 -74.0990 50° Northeast 557 641 33,000  Level FlightAware
08:34PM 46.1390 -73.9840 50° Northeast 560 644 33,000  Level FlightAware
08:35PM 46.2160 -73.8520 50° Northeast 559 643 33,000  Level FlightAware
08:36PM 46.2820 -73.7380 50° Northeast 558 642 33,000  Level FlightAware
08:36PM 46.3550 -73.6110 50° Northeast 558 642 33,000  Level FlightAware
08:37PM 46.4210 -73.4970 50° Northeast 556 640 33,000  Level FlightAware
08:38PM 46.4960 -73.3660 50° Northeast 557 641 33,000  Level FlightAware
08:38PM 46.5610 -73.2510 51° Northeast 556 640 33,000  Level FlightAware
08:39PM 46.6260 -73.1370 50° Northeast 555 639 33,000  Level FlightAware
08:40PM 46.6960 -73.0120 51° Northeast 555 639 33,000  Level FlightAware
08:40PM 46.7560 -72.9060 50° Northeast 554 638 33,000  Level FlightAware
08:41PM 46.8330 -72.7680 51° Northeast 554 638 33,000  Level FlightAware
08:42PM 46.8950 -72.6570 51° Northeast 556 640 33,000  Level FlightAware
08:43PM 46.9560 -72.5480 51° Northeast 554 638 33,000  Level FlightAware
08:43PM 47.0310 -72.4110 51° Northeast 555 639 33,000  Level FlightAware
08:44PM 47.0970 -72.2920 51° Northeast 554 638 33,000  Level FlightAware
08:45PM 47.1720 -72.1540 51° Northeast 555 639 33,000  Level FlightAware
08:46PM 47.2167 -71.9833 51° Northeast 550 633 33,000  Level Montreal Center
08:47PM 47.3000 -71.8000 56° Northeast 550 633 33,000  Level Montreal Center
08:48PM 47.4167 -71.6167 47° Northeast 550 633 33,000  Level Montreal Center
08:49PM 47.5000 -71.4500 53° Northeast 550 633 33,000  Level Montreal Center
08:50PM 47.6000 -71.2500 53° Northeast 550 633 33,000  Level Montreal Center
08:51PM 47.7000 -71.1000 45° Northeast 540 621 33,000  Level Montreal Center
08:52PM 47.7667 -70.9167 62° Northeast 540 621 33,000  Level Montreal Center
08:57PM 48.3100 -69.9820 62° Northeast 541 623 33,000  Level FlightAware
08:58PM 48.3620 -69.8800 52° Northeast 541 623 33,000  Level FlightAware
08:58PM 48.4130 -69.7770 53° Northeast 541 623 33,000  Level FlightAware
08:59PM 48.4640 -69.6750 53° Northeast 541 623 33,000  Level FlightAware
09:00PM 48.5280 -69.5470 53° Northeast 541 623 33,000  Level FlightAware
09:01PM 48.5790 -69.4440 53° Northeast 541 623 33,000  Level FlightAware
09:01PM 48.6300 -69.3410 53° Northeast 541 623 33,000  Level FlightAware
09:02PM 48.6820 -69.2380 53° Northeast 541 623 33,000  Level FlightAware
09:03PM 48.7330 -69.1350 53° Northeast 541 623 33,000  Level FlightAware
09:03PM 48.7840 -69.0320 53° Northeast 541 623 33,000  Level FlightAware
09:04PM 48.8480 -68.9030 53° Northeast 541 623 33,000  Level FlightAware
09:05PM 48.8990 -68.8000 53° Northeast 541 623 33,000  Level FlightAware
09:05PM 48.9500 -68.6960 53° Northeast 541 623 33,000  Level FlightAware
09:06PM 49.0020 -68.5930 52° Northeast 541 623 33,000  Level FlightAware
09:06PM 49.0833 -68.2000 52° Northeast 560 644 33,000  Level Gander Center
09:07PM 49.1833 -68.0167 50° Northeast 570 656 33,000  Level Gander Center
09:08PM 49.2667 -67.8167 57° Northeast 570 656 33,000  Level Gander Center
09:09PM 49.3333 -67.6167 63° Northeast 570 656 33,000  Level Gander Center
09:10PM 49.4333 -67.4000 55° Northeast 570 656 33,000  Level Gander Center
09:11PM 49.5333 -67.2167 50° Northeast 570 656 33,000  Level Gander Center
09:12PM 49.6167 -66.9833 61° Northeast 570 656 33,000  Level Gander Center
09:13PM 49.7000 -66.7833 57° Northeast 570 656 33,000  Level Gander Center
09:14PM 49.7833 -66.6000 55° Northeast 560 644 33,000  Level Gander Center
09:15PM 49.8667 -66.4000 57° Northeast 560 644 33,000  Level Gander Center
09:16PM 49.9500 -66.1667 61° Northeast 560 644 33,000  Level Gander Center
09:17PM 50.0167 -65.9667 63° Northeast 560 644 33,000  Level Gander Center
09:18PM 50.1167 -65.7667 52° Northeast 560 644 33,000  Level Gander Center
09:19PM 50.1833 -65.5667 62° Northeast 560 644 33,000  Level Gander Center
09:20PM 50.2833 -65.3333 56° Northeast 570 656 33,000  Level Gander Center
09:21PM 50.3667 -65.1333 57° Northeast 570 656 33,000  Level Gander Center
09:22PM 50.4500 -64.9333 57° Northeast 580 667 33,000  Level Gander Center
09:23PM 50.5333 -64.7000 61° Northeast 580 667 33,000  Level Gander Center
09:24PM 50.6167 -64.5000 57° Northeast 580 667 33,000  Level Gander Center
09:25PM 50.7000 -64.2667 61° Northeast 580 667 33,000  Level Gander Center
09:26PM 50.7833 -64.0333 60° Northeast 590 679 33,000  Level Gander Center
09:27PM 50.8833 -63.8000 56° Northeast 590 679 33,000  Level Gander Center
09:28PM 50.9500 -63.5833 64° Northeast 590 679 33,000  Level Gander Center
09:29PM 51.0333 -63.3500 60° Northeast 600 690 33,000  Level Gander Center
09:30PM 51.1167 -63.1167 60° Northeast 600 690 33,000  Level Gander Center
09:31PM 51.2000 -62.9167 56° Northeast 600 690 33,000  Level Gander Center
09:32PM 51.2833 -62.6667 62° Northeast 600 690 33,000  Level Gander Center
09:33PM 51.3667 -62.4333 60° Northeast 600 690 33,000  Level Gander Center
09:34PM 51.4500 -62.2000 60° Northeast 600 690 33,000  Level Gander Center
09:35PM 51.5333 -61.9500 62° Northeast 610 702 33,000  Level Gander Center
09:36PM 51.6000 -61.7333 64° Northeast 610 702 33,000  Level Gander Center
09:37PM 51.6833 -61.4667 63° Northeast 620 713 33,000  Level Gander Center
09:38PM 51.7667 -61.2500 58° Northeast 620 713 33,000  Level Gander Center
09:39PM 51.8500 -60.9833 63° Northeast 620 713 33,000  Level Gander Center
09:40PM 51.9333 -60.7333 62° Northeast 630 725 33,000  Level Gander Center
09:41PM 52.0167 -60.5000 60° Northeast 630 725 33,000  Level Gander Center
09:42PM 52.1167 -60.2500 57° Northeast 640 736 33,000  Level Gander Center
09:43PM 52.2167 -60.0000 57° Northeast 640 736 33,000  Level Gander Center
09:44PM 52.3000 -59.7500 61° Northeast 640 736 33,000  Level Gander Center
09:45PM 52.4000 -59.4667 60° Northeast 640 736 33,000  Level Gander Center
09:46PM 52.4833 -59.2500 58° Northeast 630 725 33,000  Level Gander Center
09:47PM 52.5500 -59.0000 66° East 630 725 33,000  Level Gander Center
09:48PM 52.6500 -58.7500 57° Northeast 620 713 33,000 120 Level Gander Center
09:49PM 52.7333 -58.5000 61° Northeast 620 713 33,300 480 Climbing Gander Center
09:50PM 52.8167 -58.2333 63° Northeast 620 713 34,000 300 Climbing Gander Center
09:51PM 52.9000 -58.0167 57° Northeast 620 713 34,000  Level Gander Center
09:52PM 52.9833 -57.7500 62° Northeast 620 713 34,000  Level Gander Center
09:53PM 53.0667 -57.5000 61° Northeast 620 713 34,000  Level Gander Center
09:54PM 53.1500 -57.2333 62° Northeast 620 713 34,000  Level Gander Center
09:55PM 53.2167 -57.0000 64° Northeast 610 702 34,000  Level Gander Center
09:56PM 53.3167 -56.7500 56° Northeast 610 702 34,000  Level Gander Center
09:57PM 53.3833 -56.4833 67° East 600 690 34,000  Level Gander Center
09:58PM 53.4667 -56.2500 59° Northeast 600 690 34,000  Level Gander Center
09:59PM 53.5333 -55.9833 67° East 590 679 34,000  Level Gander Center
10:00PM 53.6000 -55.7500 64° Northeast 590 679 34,000  Level Gander Center
10:01PM 53.7000 -55.5167 54° Northeast 590 679 34,000  Level Gander Center
10:02PM 53.7500 -55.2833 70° East 580 667 34,000  Level Gander Center
10:03PM 53.8333 -55.0167 62° Northeast 590 679 34,000  Level Gander Center
10:04PM 53.9000 -54.7500 67° East 600 690 34,000  Level Gander Center
10:05PM 53.9667 -54.4833 67° East 610 702 34,000  Level Gander Center
10:06PM 54.0167 -54.2500 70° East 600 690 34,000  Level Gander Center
10:07PM 54.0833 -53.9833 67° East 600 690 34,000  Level Gander Center
10:08PM 54.1333 -53.7167 72° East 600 690 34,000  Level Gander Center
10:09PM 54.2000 -53.4500 67° East 600 690 34,000  Level Gander Center
10:10PM 54.2667 -53.1667 68° East 610 702 34,000  Level Gander Center
10:11PM 54.3333 -52.9000 67° East 600 690 34,000  Level Gander Center
10:12PM 54.3667 -52.7500 69° East 600 690 34,000  Level Gander Center
10:13PM 54.4333 -52.4167 71° East 600 690 34,000  Level Gander Center
10:14PM 54.5000 -52.1500 67° East 600 690 34,000  Level Gander Center
10:15PM 54.5667 -51.9000 65° Northeast 600 690 34,000  Level Gander Center
10:16PM 54.6000 -51.6833 75° East 600 690 34,000  Level Gander Center
10:18PM 54.6614 -51.4331 67° East  Level FlightAware Approximate
10:25PM 55.0262 -49.8155 76° East  Level FlightAware Approximate
10:26PM 55.0602 -49.5730 76° East  Level FlightAware Approximate
10:27PM 55.0937 -49.3301 76° East  Level FlightAware Approximate
10:28PM 55.1270 -49.0851 77° East  Level FlightAware Approximate
10:29PM 55.1597 -48.8397 77° East  Level FlightAware Approximate
10:30PM 55.1920 -48.5940 77° East  Level FlightAware Approximate
10:31PM 55.2238 -48.3478 77° East  Level FlightAware Approximate
10:32PM 55.2550 -48.1012 77° East  Level FlightAware Approximate
10:33PM 55.2858 -47.8543 78° East  Level FlightAware Approximate
10:34PM 55.3161 -47.6069 78° East  Level FlightAware Approximate
10:35PM 55.3459 -47.3592 78° East  Level FlightAware Approximate
10:36PM 55.3747 -47.1110 79° East  Level FlightAware Approximate
10:37PM 55.4022 -46.8621 79° East  Level FlightAware Approximate
10:38PM 55.4292 -46.6129 79° East  Level FlightAware Approximate
10:39PM 55.4556 -46.3633 79° East  Level FlightAware Approximate
10:40PM 55.4816 -46.1134 80° East  Level FlightAware Approximate
10:41PM 55.5070 -45.8632 80° East  Level FlightAware Approximate
10:42PM 55.5332 -45.6131 79° East  Level FlightAware Approximate
10:43PM 55.5598 -45.3629 79° East  Level FlightAware Approximate
10:44PM 55.5858 -45.1124 79° East  Level FlightAware Approximate
10:45PM 55.6113 -44.8615 80° East  Level FlightAware Approximate
10:46PM 55.6363 -44.6103 80° East  Level FlightAware Approximate
10:47PM 55.6608 -44.3588 80° East  Level FlightAware Approximate
10:48PM 55.6848 -44.1070 80° East  Level FlightAware Approximate
10:49PM 55.7083 -43.8549 81° East  Level FlightAware Approximate
10:50PM 55.7312 -43.6025 81° East  Level FlightAware Approximate
10:51PM 55.7536 -43.3498 81° East  Level FlightAware Approximate
10:52PM 55.7755 -43.0967 81° East  Level FlightAware Approximate
10:53PM 55.7969 -42.8435 81° East  Level FlightAware Approximate
10:54PM 55.8178 -42.5899 82° East  Level FlightAware Approximate
10:55PM 55.8381 -42.3361 82° East  Level FlightAware Approximate
10:56PM 55.8579 -42.0820 82° East  Level FlightAware Approximate
10:57PM 55.8773 -41.8276 82° East  Level FlightAware Approximate
10:58PM 55.8960 -41.5730 82° East  Level FlightAware Approximate
10:59PM 55.9143 -41.3182 83° East  Level FlightAware Approximate
11:00PM 55.9320 -41.0631 83° East  Level FlightAware Approximate
11:01PM 55.9491 -40.8084 83° East  Level FlightAware Approximate
11:02PM 55.9658 -40.5534 83° East  Level FlightAware Approximate
11:03PM 55.9819 -40.2982 83° East  Level FlightAware Approximate
11:04PM 55.9974 -40.0428 84° East  Level FlightAware Approximate
11:05PM 56.0085 -39.7866 86° East  Level FlightAware Approximate
11:06PM 56.0182 -39.5301 86° East  Level FlightAware Approximate
11:07PM 56.0273 -39.2735 86° East  Level FlightAware Approximate
11:08PM 56.0359 -39.0168 86° East  Level FlightAware Approximate
11:09PM 56.0440 -38.7599 87° East  Level FlightAware Approximate
11:10PM 56.0516 -38.5030 87° East  Level FlightAware Approximate
11:11PM 56.0586 -38.2459 87° East  Level FlightAware Approximate
11:12PM 56.0651 -37.9888 87° East  Level FlightAware Approximate
11:13PM 56.0710 -37.7316 88° East  Level FlightAware Approximate
11:14PM 56.0765 -37.4743 88° East  Level FlightAware Approximate
11:15PM 56.0813 -37.2169 88° East  Level FlightAware Approximate
11:16PM 56.0857 -36.9595 88° East  Level FlightAware Approximate
11:17PM 56.0895 -36.7020 88° East  Level FlightAware Approximate
11:18PM 56.0928 -36.4445 89° East  Level FlightAware Approximate
11:19PM 56.0955 -36.1870 89° East  Level FlightAware Approximate
11:20PM 56.0977 -35.9294 89° East  Level FlightAware Approximate
11:21PM 56.0994 -35.6717 89° East  Level FlightAware Approximate
11:22PM 56.1005 -35.4141 89° East  Level FlightAware Approximate
11:23PM 56.1011 -35.1564 90° East  Level FlightAware Approximate
11:24PM 56.1012 -34.8988 90° East  Level FlightAware Approximate
11:25PM 56.1007 -34.6411 90° East  Level FlightAware Approximate
11:26PM 56.0997 -34.3835 90° East  Level FlightAware Approximate
11:27PM 56.0981 -34.1259 91° East  Level FlightAware Approximate
11:28PM 56.0960 -33.8683 91° East  Level FlightAware Approximate
11:29PM 56.0934 -33.6107 91° East  Level FlightAware Approximate
11:30PM 56.0902 -33.3532 91° East  Level FlightAware Approximate
11:31PM 56.0865 -33.0957 91° East  Level FlightAware Approximate
11:32PM 56.0823 -32.8382 92° East  Level FlightAware Approximate
11:33PM 56.0775 -32.5809 92° East  Level FlightAware Approximate
11:34PM 56.0722 -32.3236 92° East  Level FlightAware Approximate
11:35PM 56.0664 -32.0663 92° East  Level FlightAware Approximate
11:36PM 56.0600 -31.8092 92° East  Level FlightAware Approximate
11:37PM 56.0531 -31.5521 93° East  Level FlightAware Approximate
11:38PM 56.0457 -31.2952 93° East  Level FlightAware Approximate
11:39PM 56.0377 -31.0383 93° East  Level FlightAware Approximate
11:40PM 56.0292 -30.7815 93° East  Level FlightAware Approximate
11:41PM 56.0202 -30.5249 93° East  Level FlightAware Approximate
11:42PM 56.0106 -30.2684 94° East  Level FlightAware Approximate
11:43PM 56.0005 -30.0120 94° East  Level FlightAware Approximate
11:44PM 55.9858 -29.7564 96° East  Level FlightAware Approximate
11:45PM 55.9703 -29.5011 96° East  Level FlightAware Approximate
11:46PM 55.9543 -29.2459 96° East  Level FlightAware Approximate
11:47PM 55.9379 -28.9910 96° East  Level FlightAware Approximate
11:48PM 55.9208 -28.7363 97° East  Level FlightAware Approximate
11:49PM 55.9033 -28.4818 97° East  Level FlightAware Approximate
11:50PM 55.8852 -28.2276 97° East  Level FlightAware Approximate
11:51PM 55.8666 -27.9736 97° East  Level FlightAware Approximate
11:52PM 55.8475 -27.7198 98° East  Level FlightAware Approximate
11:53PM 55.8278 -27.4663 98° East  Level FlightAware Approximate
11:54PM 55.8077 -27.2130 98° East  Level FlightAware Approximate
11:55PM 55.7870 -26.9601 98° East  Level FlightAware Approximate
11:56PM 55.7658 -26.7073 98° East  Level FlightAware Approximate
11:57PM 55.7441 -26.4549 99° East  Level FlightAware Approximate
11:58PM 55.7218 -26.2028 99° East  Level FlightAware Approximate
11:59PM 55.6991 -25.9509 99° East  Level FlightAware Approximate
12:00AM 55.6758 -25.6993 99° East  Level FlightAware Approximate
12:01AM 55.6520 -25.4481 99° East  Level FlightAware Approximate
12:02AM 55.6277 -25.1971 100° East  Level FlightAware Approximate
12:03AM 55.6029 -24.9465 100° East  Level FlightAware Approximate
12:04AM 55.5776 -24.6962 100° East  Level FlightAware Approximate
12:05AM 55.5518 -24.4462 100° East  Level FlightAware Approximate
12:06AM 55.5254 -24.1965 100° East  Level FlightAware Approximate
12:07AM 55.4986 -23.9472 101° East  Level FlightAware Approximate
12:08AM 55.4712 -23.6982 101° East  Level FlightAware Approximate
12:09AM 55.4434 -23.4496 101° East  Level FlightAware Approximate
12:10AM 55.4150 -23.2013 101° East  Level FlightAware Approximate
12:11AM 55.3862 -22.9534 101° East  Level FlightAware Approximate
12:12AM 55.3568 -22.7059 102° East  Level FlightAware Approximate
12:13AM 55.3270 -22.4587 102° East  Level FlightAware Approximate
12:14AM 55.2966 -22.2119 102° East  Level FlightAware Approximate
12:15AM 55.2657 -21.9655 102° East  Level FlightAware Approximate
12:16AM 55.2344 -21.7194 102° East  Level FlightAware Approximate
12:17AM 55.2025 -21.4738 103° East  Level FlightAware Approximate
12:18AM 55.1702 -21.2285 103° East  Level FlightAware Approximate
12:19AM 55.1374 -20.9837 103° East  Level FlightAware Approximate
12:20AM 55.1041 -20.7392 103° East  Level FlightAware Approximate
12:21AM 55.0703 -20.4952 104° East  Level FlightAware Approximate
12:22AM 55.0360 -20.2516 104° East  Level FlightAware Approximate
12:23AM 55.0012 -20.0084 104° East  Level FlightAware Approximate
12:24AM 54.9709 -19.7636 102° East  Level FlightAware Approximate
12:25AM 54.9403 -19.5191 102° East  Level FlightAware Approximate
12:26AM 54.9091 -19.2749 102° East  Level FlightAware Approximate
12:27AM 54.8775 -19.0312 103° East  Level FlightAware Approximate
12:28AM 54.8454 -18.7878 103° East  Level FlightAware Approximate
12:29AM 54.8128 -18.5448 103° East  Level FlightAware Approximate
12:30AM 54.7798 -18.3022 103° East  Level FlightAware Approximate
12:31AM 54.7462 -18.0601 103° East  Level FlightAware Approximate
12:32AM 54.7122 -17.8183 104° East  Level FlightAware Approximate
12:33AM 54.6777 -17.5769 104° East  Level FlightAware Approximate
12:34AM 54.6427 -17.3360 104° East  Level FlightAware Approximate
12:35AM 54.6072 -17.0954 104° East  Level FlightAware Approximate
12:36AM 54.5713 -16.8553 104° East  Level FlightAware Approximate
12:36AM 53.8920 -13.8650 105° East 539 620 34,000  Level FlightAware
12:37AM 54.5349 -16.6156 105° East  Level FlightAware Approximate
12:37AM 53.8640 -13.6960 106° East 538 619 34,000  Level FlightAware
12:38AM 53.8130 -13.3980 106° East 532 612 35,200 780 Climbing FlightAware
12:39AM 53.7590 -13.1180 108° East 532 612 36,000 240 Climbing FlightAware
12:41AM 53.6650 -12.6310 108° East 527 606 36,000  Level FlightAware
12:42AM 53.6360 -12.4760 107° East 525 604 36,000  Level FlightAware
12:44AM 53.5914 -12.0270 99° East  Level Estimated
12:45AM 53.5671 -11.7890 100° East  Level Estimated
12:45AM 53.5080 -11.7680 100° East 528 608 36,000  Level FlightAware
12:46AM 53.4580 -11.4940 107° East 530 610 36,000  Level FlightAware
12:49AM 53.3898 -10.8504 100° East  Level Estimated
12:50AM 53.3638 -10.6140 100° East  Level Estimated
12:50AM 53.2460 -10.3920 100° East 529 609 36,000  Level FlightAware
12:51AM 53.2160 -10.2380 108° East 526 605 36,000  Level FlightAware
12:52AM 53.1840 -10.0820 109° East 524 603 36,000  Level FlightAware
12:52AM 53.1530 -9.9310 109° East 522 601 36,000  Level FlightAware
12:53AM 53.1170 -9.7570 109° East 518 596 36,000  Level FlightAware
12:54AM 53.0870 -9.6110 109° East 516 594 36,000  Level FlightAware
12:55AM 53.0540 -9.4520 109° East 514 592 36,000  Level FlightAware
12:55AM 53.0210 -9.2870 108° East 512 589 36,000  Level FlightAware
12:56AM 52.9850 -9.1190 110° East 510 587 36,000  Level FlightAware
12:57AM 52.9540 -8.9720 109° East 509 586 36,000 -1,560 Level FlightAware
12:57AM 52.9277 -8.9636 109° East 466 536 34,500 -2,520 Descending FlightAware UK
12:57AM 52.9132 -8.8969 110° East 466 536 34,500 4,080 Level FlightAware UK
12:57AM 52.9210 -8.8230 110° East 510 587 36,000  Climbing FlightAware
12:58AM 52.8892 -8.7876 110° East 466 536 34,500 -2,100 Descending FlightAware UK
12:58AM 52.8747 -8.7220 110° East 466 536 34,500 4,680 Level FlightAware UK
12:58AM 52.8850 -8.6600 110° East 510 587 36,000  Climbing FlightAware
12:58AM 52.8604 -8.6565 110° East 468 539 34,500  Descending FlightAware UK
12:59AM 52.8530 -8.5160 110° East 509 586 36,000  Climbing FlightAware
12:59AM 52.8411 -8.5692 110° East 468 539 34,500 -4,740 Descending FlightAware UK
12:59AM 52.8263 -8.5038 110° East 468 539 34,500 2,280 Level FlightAware UK
12:59AM 52.8190 -8.3690 111° Southeast 507 583 36,000  Climbing FlightAware
01:00AM 52.8063 -8.4175 111° Southeast 466 536 34,500 -6,000 Descending FlightAware UK
01:00AM 52.7962 -8.3744 111° Southeast 468 539 34,500  Level FlightAware UK
01:00AM 52.7809 -8.3091 111° Southeast 466 536 34,500 3,000 Level FlightAware UK
01:00AM 52.7800 -8.2040 111° Southeast 503 579 36,000  Climbing FlightAware
01:01AM 52.7558 -8.2013 111° Southeast 466 536 34,500 -2,520 Descending FlightAware UK
01:01AM 52.7408 -8.1366 111° Southeast 466 536 34,500 4,080 Level FlightAware UK
01:01AM 52.7460 -8.0580 111° Southeast 502 578 36,000 -300 Climbing FlightAware
01:01AM 52.7207 -8.0508 111° Southeast 462 532 34,400 -2,400 Descending FlightAware UK
01:02AM 52.7056 -7.9868 111° Southeast 460 529 34,500 3,840 Climbing FlightAware UK
01:02AM 52.7090 -7.9020 111° Southeast 503 579 36,000  Climbing FlightAware
01:02AM 52.6859 -7.9013 111° Southeast 462 532 34,500 -2,580 Descending FlightAware UK
01:02AM 52.6713 -7.8372 111° Southeast 462 532 34,500 3,900 Level FlightAware UK
01:02AM 52.6750 -7.7580 111° Southeast 503 579 36,000  Climbing FlightAware
01:03AM 52.6516 -7.7510 111° Southeast 464 534 34,500  Descending FlightAware UK
01:03AM 52.6430 -7.6160 111° Southeast 503 579 36,000  Climbing FlightAware
01:03AM 52.6321 -7.6656 111° Southeast 464 534 34,500 -6,000 Descending FlightAware UK
01:03AM 52.6224 -7.6227 111° Southeast 464 534 34,500  Level FlightAware UK
01:04AM 52.6081 -7.5585 110° East 466 536 34,500 3,000 Level FlightAware UK
01:04AM 52.6060 -7.4540 110° East 502 578 36,000  Climbing FlightAware
01:04AM 52.5842 -7.4515 110° East 466 536 34,500 -2,520 Descending FlightAware UK
01:04AM 52.5699 -7.3876 110° East 466 536 34,500 4,080 Level FlightAware UK
01:04AM 52.5730 -7.3100 110° East 501 577 36,000  Climbing FlightAware
01:05AM 52.5463 -7.2808 110° East 464 534 34,500 -2,100 Descending FlightAware UK
01:05AM 52.5321 -7.2169 110° East 464 534 34,500 4,680 Level FlightAware UK
01:05AM 52.5360 -7.1470 110° East 500 575 36,000  Climbing FlightAware
01:05AM 52.5176 -7.1532 110° East 466 536 34,500 -2,580 Descending FlightAware UK
01:06AM 52.5032 -7.0898 111° Southeast 464 534 34,500 3,900 Level FlightAware UK
01:06AM 52.5030 -7.0060 111° Southeast 500 575 36,000  Climbing FlightAware
01:06AM 52.4786 -6.9842 111° Southeast 462 532 34,500  Descending FlightAware UK
01:06AM 52.4700 -6.8640 111° Southeast 499 574 36,000  Climbing FlightAware
01:07AM 52.4539 -6.8788 111° Southeast 460 529 34,500 -2,760 Descending FlightAware UK
01:07AM 52.4389 -6.8157 111° Southeast 460 529 34,500 3,000 Level FlightAware UK
01:07AM 52.4310 -6.7050 111° Southeast 499 574 36,000  Climbing FlightAware
01:08AM 52.4138 -6.7106 111° Southeast 464 534 34,500 -2,520 Descending FlightAware UK
01:08AM 52.3988 -6.6476 111° Southeast 468 539 34,500 4,080 Level FlightAware UK
01:08AM 52.3970 -6.5630 111° Southeast 498 573 36,000  Climbing FlightAware
01:08AM 52.3784 -6.5629 111° Southeast 468 539 34,500 -2,400 Descending FlightAware UK
01:09AM 52.3631 -6.5001 112° Southeast 468 539 34,500 3,600 Level FlightAware UK
01:09AM 52.3600 -6.4150 112° Southeast 497 572 36,000  Climbing FlightAware
01:09AM 52.3324 -6.3751 112° Southeast 468 539 34,500  Descending FlightAware UK
01:09AM 52.3250 -6.2720 112° Southeast 496 571 36,000  Climbing FlightAware
01:10AM 52.3067 -6.2714 112° Southeast 470 541 34,500 -2,460 Descending FlightAware UK
01:10AM 52.2913 -6.2093 112° Southeast 468 539 34,500  Level FlightAware UK
01:10AM 52.2659 -6.1062 112° Southeast 468 539 34,500  Level FlightAware UK
01:11AM 52.2507 -6.0445 112° Southeast 466 536 34,500  Level FlightAware UK
01:11AM 52.2301 -5.9621 112° Southeast 466 536 34,500  Level FlightAware UK
01:12AM 52.2098 -5.8814 112° Southeast 466 536 34,500  Level FlightAware UK
01:12AM 52.1891 -5.7996 112° Southeast 468 539 34,500  Level FlightAware UK
01:12AM 52.1689 -5.7192 112° Southeast 466 536 34,500  Level FlightAware UK
01:13AM 52.1481 -5.6378 113° Southeast 466 536 34,500  Level FlightAware UK
01:13AM 52.1327 -5.5777 113° Southeast 464 534 34,500  Level FlightAware UK
01:13AM 52.1176 -5.5175 112° Southeast 460 529 34,500  Level FlightAware UK
01:14AM 52.0974 -5.4379 112° Southeast 460 529 34,500  Level FlightAware UK
01:14AM 52.0759 -5.3611 114° Southeast 458 527 34,500  Level FlightAware UK
01:15AM 52.0452 -5.2680 118° Southeast 456 525 34,500  Level FlightAware UK
01:15AM 51.9956 -5.1182 118° Southeast 454 522 34,500  Level FlightAware UK
01:16AM 51.9774 -5.0623 118° Southeast 452 520 34,500  Level FlightAware UK
01:16AM 51.9593 -5.0066 118° Southeast 452 520 34,500  Level FlightAware UK
01:17AM 51.9105 -4.8585 118° Southeast 448 516 34,500  Level FlightAware UK
01:17AM 51.8861 -4.7848 118° Southeast 450 518 34,500  Level FlightAware UK
01:18AM 51.8611 -4.7116 119° Southeast 454 522 34,500  Level FlightAware UK
01:18AM 51.8422 -4.6568 119° Southeast 454 522 34,500  Level FlightAware UK
01:19AM 51.8045 -4.5474 119° Southeast 454 522 34,500  Level FlightAware UK
01:19AM 51.7669 -4.4380 119° Southeast 452 520 34,500  Level FlightAware UK
01:19AM 51.7481 -4.3834 119° Southeast 452 520 34,500  Level FlightAware UK
01:20AM 51.7292 -4.3289 119° Southeast 452 520 34,500  Level FlightAware UK
01:20AM 51.7106 -4.2741 119° Southeast 452 520 34,500  Level FlightAware UK
01:20AM 51.6972 -4.1911 105° East 454 522 34,500  Level FlightAware UK
01:21AM 51.6945 -4.1267 94° East 454 522 34,500  Level FlightAware UK
01:21AM 51.6907 -4.0407 94° East 458 527 34,500 2,520 Level FlightAware UK
01:21AM 51.6776 -3.9357 94° East 481 554 36,000  Climbing FlightAware ADS-B
01:22AM 51.6865 -3.9331 94° East 462 532 34,500  Descending FlightAware UK
01:22AM 51.6730 -3.8280 94° East 481 554 36,000  Climbing FlightAware ADS-B
01:22AM 51.6821 -3.8256 94° East 460 529 34,500  Descending FlightAware UK
01:22AM 51.6675 -3.7071 94° East 479 551 36,000  Climbing FlightAware ADS-B
01:23AM 51.6776 -3.7184 94° East 462 532 34,500  Descending FlightAware UK
01:23AM 51.6620 -3.5922 94° East 479 551 36,000  Climbing FlightAware ADS-B
01:23AM 51.6717 -3.5902 94° East 462 532 34,500 -2,460 Descending FlightAware UK
01:24AM 51.6688 -3.5262 94° East 462 532 34,500 4,980 Level FlightAware UK
01:24AM 51.6558 -3.4605 94° East 478 550 36,000  Climbing FlightAware ADS-B
01:24AM 51.6662 -3.4615 94° East 458 527 34,500  Descending FlightAware UK
01:24AM 51.6500 -3.3384 94° East 477 549 36,000  Climbing FlightAware ADS-B
01:25AM 51.6587 -3.2912 94° East 460 529 34,500  Descending FlightAware UK
01:25AM 51.6445 -3.2232 94° East 476 548 36,000  Climbing FlightAware ADS-B
01:25AM 51.6560 -3.2274 94° East 460 529 34,500  Descending FlightAware UK
01:25AM 51.6390 -3.1049 94° East 475 547 36,000 1,800 Climbing FlightAware ADS-B
01:26AM 51.6337 -2.9938 94° East 475 547 36,000 -1,680 Level FlightAware ADS-B
01:26AM 51.6419 -2.9731 94° East 462 532 34,500  Descending FlightAware UK
01:26AM 51.6249 -2.8894 94° East 472 543 36,000  Climbing FlightAware ADS-B
01:27AM 51.6307 -2.8474 94° East 456 525 34,500  Descending FlightAware UK
01:27AM 51.6153 -2.7834 94° East 472 543 36,000  Climbing FlightAware ADS-B
01:27AM 51.6221 -2.7430 94° East 454 522 34,500  Descending FlightAware UK
01:27AM 51.6062 -2.6788 94° East 471 542 36,000  Climbing FlightAware ADS-B
01:28AM 51.6171 -2.6803 94° East 454 522 34,500  Descending FlightAware UK
01:28AM 51.5976 -2.5734 94° East 471 542 36,000  Climbing FlightAware ADS-B
01:28AM 51.6088 -2.5751 94° East 450 518 34,500  Descending FlightAware UK
01:28AM 51.5892 -2.4689 94° East 472 543 36,000  Climbing FlightAware ADS-B
01:29AM 51.5992 -2.4496 94° East 454 522 34,500  Descending FlightAware UK
01:29AM 51.5808 -2.3637 94° East 471 542 36,000  Climbing FlightAware ADS-B
01:29AM 51.5892 -2.3236 94° East 454 522 34,500  Descending FlightAware UK
01:29AM 51.5721 -2.2584 94° East 471 542 36,000 2,640 Climbing FlightAware ADS-B
01:30AM 51.5631 -2.1519 98° East 471 542 36,000  Level FlightAware ADS-B
01:30AM 51.5535 -2.0414 98° East 471 542 36,000 -1,620 Level FlightAware ADS-B
01:31AM 51.5630 -2.0110 98° East 464 534 34,500  Descending FlightAware UK
01:31AM 51.5444 -1.9374 98° East 470 541 36,000  Climbing FlightAware ADS-B
01:31AM 51.5557 -1.9278 98° East 460 529 34,500  Descending FlightAware UK
01:31AM 51.5348 -1.8306 98° East 469 540 36,000  Climbing FlightAware ADS-B
01:32AM 51.5447 -1.8026 98° East 458 527 34,500  Descending FlightAware UK
01:32AM 51.5255 -1.7269 98° East 468 539 36,000  Climbing FlightAware ADS-B
01:32AM 51.5374 -1.7199 98° East 454 522 34,500  Descending FlightAware UK
01:32AM 51.5161 -1.6229 98° East 467 537 36,000  Climbing FlightAware ADS-B
01:33AM 51.5266 -1.5960 98° East 456 525 34,500  Descending FlightAware UK
01:33AM 51.5072 -1.5189 98° East 467 537 36,000  Climbing FlightAware ADS-B
01:33AM 51.5181 -1.4928 98° East 452 520 34,500  Descending FlightAware UK
01:33AM 51.4982 -1.4142 98° East 466 536 36,000  Climbing FlightAware ADS-B
01:34AM 51.5095 -1.3890 98° East 454 522 34,500  Descending FlightAware UK
01:34AM 51.4896 -1.3117 98° East 466 536 36,000  Climbing FlightAware ADS-B
01:34AM 51.5026 -1.3066 98° East 458 527 34,500  Descending FlightAware UK
01:34AM 51.4807 -1.2092 98° East 466 536 36,000 2,040 Climbing FlightAware ADS-B
01:35AM 51.4718 -1.1061 98° East 465 535 36,000 -1,980 Level FlightAware ADS-B
01:35AM 51.4850 -1.1000 98° East 458 527 34,500  Descending FlightAware UK
01:35AM 51.4625 -1.0000 98° East 465 535 36,000  Climbing FlightAware ADS-B
01:36AM 51.4723 -0.9566 98° East 460 529 34,500  Descending FlightAware UK
01:36AM 51.4524 -0.8860 98° East 464 534 36,000  Climbing FlightAware ADS-B
01:36AM 51.4651 -0.8742 98° East 454 522 34,500  Descending FlightAware UK
01:36AM 51.4433 -0.7841 98° East 464 534 36,000  Climbing FlightAware ADS-B
01:37AM 51.4541 -0.7517 98° East 456 525 34,500  Descending FlightAware UK
01:37AM 51.4342 -0.6827 98° East 463 533 36,000  Climbing FlightAware ADS-B
01:37AM 51.4449 -0.6498 98° East 452 520 34,500  Descending FlightAware UK
01:37AM 51.4248 -0.5799 98° East 463 533 36,000  Climbing FlightAware ADS-B
01:38AM 51.4372 -0.5675 98° East 450 518 34,500  Descending FlightAware UK
01:38AM 51.4148 -0.4724 98° East 463 533 36,000  Climbing FlightAware ADS-B
01:38AM 51.4281 -0.4656 98° East 448 516 34,500  Descending FlightAware UK
01:38AM 51.4054 -0.3703 98° East 463 533 36,000  Climbing FlightAware ADS-B
01:39AM 51.4167 -0.3433 98° East 452 520 34,500  Descending FlightAware UK
01:39AM 51.3957 -0.2690 98° East 463 533 36,000  Climbing FlightAware ADS-B
01:39AM 51.4088 -0.2615 98° East 448 516 34,500  Descending FlightAware UK
01:40AM 51.3858 -0.1628 98° East 464 534 36,000  Climbing FlightAware ADS-B
01:40AM 51.3991 -0.1597 98° East 448 516 34,500  Descending FlightAware UK
01:40AM 51.3757 -0.0577 98° East 465 535 36,000  Climbing FlightAware ADS-B
01:40AM 51.3852 -0.0160 98° East 450 518 34,500  Descending FlightAware UK
01:41AM 51.3657 0.0441 98° East 466 536 36,000  Climbing FlightAware ADS-B
01:41AM 51.3752 0.0864 98° East 452 520 34,500  Descending FlightAware UK
01:41AM 51.3557 0.1468 98° East 467 537 36,000  Climbing FlightAware ADS-B
01:41AM 51.3672 0.1679 98° East 452 520 34,500  Descending FlightAware UK
01:42AM 51.3456 0.2509 98° East 468 539 36,000  Climbing FlightAware ADS-B
01:42AM 51.3570 0.2712 98° East 458 527 34,500  Descending FlightAware UK
01:42AM 51.3352 0.3545 98° East 468 539 36,000  Climbing FlightAware ADS-B
01:42AM 51.3465 0.3744 98° East 460 529 34,500  Descending FlightAware UK
01:43AM 51.3245 0.4585 98° East 468 539 36,000  Climbing FlightAware ADS-B
01:43AM 51.3338 0.4974 98° East 466 536 34,500  Descending FlightAware UK
01:43AM 51.3139 0.5632 98° East 467 537 36,000 2,340 Climbing FlightAware ADS-B
01:44AM 51.3032 0.6670 99° East 466 536 36,000 -1,740 Level FlightAware ADS-B
01:44AM 51.3127 0.7016 99° East 464 534 34,500  Descending FlightAware UK
01:44AM 51.2924 0.7713 99° East 465 535 36,000  Climbing FlightAware ADS-B
01:44AM 51.3042 0.7837 99° East 466 536 34,500  Descending FlightAware UK
01:45AM 51.2821 0.8732 99° East 463 533 36,000  Climbing FlightAware ADS-B
01:45AM 51.2916 0.9053 99° East 462 532 34,500  Descending FlightAware UK
01:45AM 51.2713 0.9767 99° East 462 532 36,000 2,220 Climbing FlightAware ADS-B
01:46AM 51.2607 1.0778 99° East 460 529 36,000 -1,620 Level FlightAware ADS-B
01:46AM 51.2680 1.1275 99° East 460 529 34,500  Descending FlightAware UK
01:46AM 51.2495 1.1841 99° East 459 528 36,000  Climbing FlightAware ADS-B
01:47AM 51.2550 1.2475 99° East 462 532 34,500  Descending FlightAware UK
01:47AM 51.2373 1.2959 99° East 459 528 36,000  Climbing FlightAware ADS-B
01:47AM 51.2439 1.3471 99° East 460 529 34,500 -1,800 Descending FlightAware UK
01:48AM 51.2336 1.4256 102° East 458 527 34,500 2,340 Level FlightAware UK
01:48AM 51.2120 1.5030 102° East 453 521 36,000  Climbing FlightAware
01:48AM 51.2259 1.4844 102° East 456 525 34,500 -3,960 Descending FlightAware UK
01:48AM 51.2182 1.5439 102° East 456 525 34,500 2,820 Level FlightAware UK
01:48AM 51.1960 1.6320 102° East 451 519 36,200 1,140 Climbing FlightAware
01:49AM 51.2031 1.6620 102° East 454 522 35,200 -1,140 Descending FlightAware UK
01:49AM 51.1957 1.7206 101° East 454 522 35,500 4,140 Climbing FlightAware UK
01:49AM 51.1770 1.7810 101° East 454 522 37,000  Climbing FlightAware
01:49AM 51.1857 1.7989 101° East 454 522 35,500 -2,280 Descending FlightAware UK
01:50AM 51.1755 1.8784 102° East 456 525 35,500 3,060 Level FlightAware UK
01:50AM 51.1590 1.9270 102° East 457 526 37,000  Climbing FlightAware
01:50AM 51.1652 1.9580 102° East 458 527 35,500  Descending FlightAware UK
01:51AM 51.1420 2.0620 102° East 457 526 37,000  Climbing FlightAware
01:51AM 51.1451 2.1166 102° East 454 522 35,500  Descending FlightAware UK
01:51AM 51.1278 2.1715 102° East 455 524 37,000  Climbing FlightAware ADS-B
01:52AM 51.1325 2.2149 102° East 456 525 35,500 -2,100 Descending FlightAware UK
01:52AM 51.1248 2.2737 102° East 454 522 35,500 4,980 Level FlightAware UK
01:52AM 51.1130 2.2880 102° East 454 522 37,000  Climbing FlightAware
01:52AM 51.1171 2.3329 102° East 454 522 35,500 -2,160 Descending FlightAware UK
01:53AM 51.1069 2.4116 102° East 450 518 35,500 2,760 Level FlightAware UK
01:53AM 51.0900 2.4660 102° East 452 520 37,000  Climbing FlightAware
01:53AM 51.0965 2.4893 102° East 454 522 35,500  Descending FlightAware UK
01:53AM 51.0740 2.5870 102° East 451 519 37,000  Climbing FlightAware
01:54AM 51.0779 2.6250 102° East 454 522 35,500 -2,460 Descending FlightAware UK
01:54AM 51.0697 2.6837 102° East 458 527 35,500 3,300 Level FlightAware UK
01:54AM 51.0540 2.7370 102° East 451 519 37,000  Climbing FlightAware
01:54AM 51.0565 2.7798 102° East 454 522 35,500 -2,280 Descending FlightAware UK
01:55AM 51.0484 2.8384 102° East 454 522 35,500 4,680 Level FlightAware UK
01:55AM 51.0350 2.8720 102° East 449 517 37,000  Climbing FlightAware
01:55AM 51.0404 2.8964 102° East 452 520 35,500 -2,520 Descending FlightAware UK
01:55AM 51.0326 2.9543 102° East 454 522 35,500 3,300 Level FlightAware UK
01:56AM 51.0160 3.0100 102° East 449 517 37,000  Climbing FlightAware
01:56AM 51.0217 3.0312 102° East 454 522 35,500 -2,760 Descending FlightAware UK
01:56AM 51.0135 3.0889 103° East 456 525 35,500 3,600 Level FlightAware UK
01:56AM 50.9980 3.1430 103° East 449 517 37,000  Climbing FlightAware
01:56AM 51.0023 3.1656 103° East 454 522 35,500 -2,580 Descending FlightAware UK
01:57AM 50.9941 3.2241 103° East 454 522 35,500 3,900 Level FlightAware UK
01:57AM 50.9800 3.2690 103° East 449 517 37,000  Climbing FlightAware
01:57AM 50.9832 3.3010 103° East 452 520 35,500 -2,460 Descending FlightAware UK
01:57AM 50.9750 3.3587 103° East 452 520 35,500 3,420 Level FlightAware UK
01:58AM 50.9610 3.4100 103° East 450 518 37,000  Climbing FlightAware
01:58AM 50.9615 3.4551 103° East 458 527 35,500  Descending FlightAware UK
01:58AM 50.9410 3.5470 103° East 451 519 37,000  Climbing FlightAware
01:59AM 50.9448 3.5706 103° East 456 525 35,500  Descending FlightAware UK
01:59AM 50.9260 3.6500 103° East 451 519 37,000  Climbing FlightAware
01:59AM 50.9361 3.6282 103° East 454 522 35,500 -3,600 Descending FlightAware UK
01:59AM 50.9249 3.7053 103° East 456 525 35,500  Level FlightAware UK
02:00AM 50.9165 3.7630 103° East 460 529 35,500 3,600 Level FlightAware UK
02:00AM 50.9020 3.8240 103° East 451 519 37,000  Climbing FlightAware
02:00AM 50.9053 3.8401 103° East 462 532 35,500 -2,580 Descending FlightAware UK
02:00AM 50.8969 3.8979 103° East 462 532 35,500 3,900 Level FlightAware UK
02:00AM 50.8830 3.9500 103° East 451 519 37,000  Climbing FlightAware
02:01AM 50.8770 4.0324 103° East 456 525 35,500  Descending FlightAware UK
02:01AM 50.8630 4.0930 103° East 450 518 37,000  Climbing FlightAware
02:01AM 50.8655 4.1090 103° East 454 522 35,500 -2,700 Descending FlightAware UK
02:02AM 50.8567 4.1665 104° East 454 522 35,500 3,720 Level FlightAware UK
02:02AM 50.8430 4.2230 104° East 452 520 37,000  Climbing FlightAware
02:02AM 50.8453 4.2432 104° East 452 520 35,500  Descending FlightAware UK
02:03AM 50.8220 4.3670 104° East 452 520 37,000  Climbing FlightAware
02:03AM 50.8243 4.3780 104° East 452 520 35,500 -2,760 Descending FlightAware UK
02:03AM 50.8154 4.4356 104° East 454 522 35,500 3,600 Level FlightAware UK
02:03AM 50.8020 4.4960 104° East 454 522 37,000 1,860 Climbing FlightAware
02:04AM 50.7830 4.6220 103° East 455 524 37,000  Level FlightAware
02:05AM 50.7670 4.7720 100° East 456 525 37,000  Level FlightAware
02:05AM 50.7590 4.9050 95° East 457 526 37,000  Level FlightAware
02:06AM 50.7510 5.0380 95° East 458 527 37,000  Level FlightAware
02:07AM 50.7430 5.1770 95° East 458 527 37,000  Level FlightAware
02:07AM 50.7340 5.3160 96° East 459 528 37,000  Level FlightAware
02:08AM 50.7200 5.4590 99° East 458 527 37,000  Level FlightAware
02:09AM 50.6990 5.5760 106° East 457 526 37,000  Level FlightAware
02:09AM 50.6740 5.7160 106° East 458 527 37,000  Level FlightAware
02:10AM 50.6470 5.8650 106° East 457 526 37,000  Level FlightAware
02:11AM 50.6280 5.9680 106° East 457 526 37,000  Level FlightAware
02:12AM 50.6000 6.1140 107° East 456 525 37,000  Level FlightAware
02:12AM 50.5720 6.2630 106° East 455 524 37,000  Level FlightAware
02:13AM 50.5490 6.3880 106° East 453 521 37,000  Level FlightAware
02:14AM 50.5230 6.5210 107° East 434 499 37,000  Level FlightAware
02:14AM 50.4990 6.6470 107° East 428 493 37,000  Level FlightAware
02:15AM 50.4740 6.7730 107° East 427 491 37,000  Level FlightAware
02:16AM 50.4540 6.8760 107° East 430 495 37,000  Level FlightAware
02:16AM 50.4260 7.0170 107° East 434 499 37,000  Level FlightAware
02:17AM 50.4020 7.1380 107° East 438 504 37,000  Level FlightAware
02:18AM 50.3750 7.2740 107° East 440 506 37,000  Level FlightAware
02:19AM 50.3520 7.3870 108° East 441 507 37,000  Level FlightAware
02:19AM 50.3240 7.5250 108° East 442 509 37,000  Level FlightAware
02:20AM 50.2990 7.6470 108° East 439 505 37,000  Level FlightAware
02:21AM 50.2700 7.7800 109° East 434 499 37,000  Level FlightAware
02:21AM 50.2330 7.8900 118° Southeast 435 501 37,000  Level FlightAware
02:22AM 50.1850 8.0130 121° Southeast 434 499 37,000  Level FlightAware
02:23AM 50.1440 8.1180 121° Southeast 432 497 37,000  Level FlightAware
02:23AM 50.1030 8.2250 121° Southeast 431 496 37,000  Level FlightAware
02:24AM 50.0560 8.3440 122° Southeast 430 495 37,000  Level FlightAware
02:25AM 50.0170 8.4450 121° Southeast 428 493 37,000  Level FlightAware
02:26AM 49.9680 8.5670 122° Southeast 427 491 37,000 -480 Level FlightAware
02:26AM 49.9260 8.6700 122° Southeast 437 503 36,400 -1,080 Descending FlightAware
02:27AM 49.8840 8.7770 121° Southeast 425 489 35,600 -1,020 Descending FlightAware
02:28AM 49.8390 8.8870 122° Southeast 398 458 35,000 -480 Descending FlightAware
02:28AM 49.8010 8.9810 122° Southeast 403 464 35,000  Level FlightAware
02:29AM 49.7580 9.0880 122° Southeast 412 474 35,000  Level FlightAware
02:30AM 49.7120 9.2000 122° Southeast 422 486 35,000  Level FlightAware
02:30AM 49.6720 9.2980 122° Southeast 424 488 35,000  Level FlightAware
02:31AM 49.6270 9.4070 122° Southeast 423 487 35,000 -720 Level FlightAware
02:32AM 49.5760 9.5130 127° Southeast 420 483 34,000 -1,500 Descending FlightAware
02:33AM 49.5220 9.6090 131° Southeast 410 472 32,900 -1,980 Descending FlightAware
02:33AM 49.4700 9.6970 132° Southeast 411 473 31,200 -2,220 Descending FlightAware
02:34AM 49.4180 9.7860 132° Southeast 409 471 30,000 -1,800 Descending FlightAware
02:35AM 49.3630 9.8810 132° Southeast 397 457 28,700 -1,860 Descending FlightAware
02:35AM 49.3130 9.9650 132° Southeast 394 453 27,400 -1,740 Descending FlightAware
02:36AM 49.2740 10.0320 132° Southeast 397 457 26,400 -1,740 Descending FlightAware
02:37AM 49.2070 10.1460 132° Southeast 385 443 25,000 -960 Descending FlightAware
02:38AM 49.1550 10.2340 132° Southeast 385 443 25,000  Level FlightAware
02:38AM 49.1090 10.3110 132° Southeast 385 443 25,000  Level FlightAware
02:39AM 49.0580 10.3920 134° Southeast 384 442 25,000 -600 Level FlightAware
02:40AM 49.0040 10.4780 134° Southeast 379 436 24,200 -1,680 Descending FlightAware
02:40AM 48.9550 10.5550 134° Southeast 370 426 22,700 -2,400 Descending FlightAware
02:41AM 48.9110 10.6230 135° Southeast 362 417 21,000 -2,340 Descending FlightAware
02:42AM 48.8720 10.6850 134° Southeast 353 406 19,800 -2,520 Descending FlightAware
02:42AM 48.8140 10.7750 134° Southeast 346 398 17,500 -2,580 Descending FlightAware
02:43AM 48.7680 10.8460 134° Southeast 340 391 16,000 -2,280 Descending FlightAware
02:44AM 48.7320 10.9030 134° Southeast 331 381 14,700 -2,040 Descending FlightAware
02:44AM 48.6860 10.9730 135° Southeast 324 373 13,300 -1,920 Descending FlightAware
02:45AM 48.6460 11.0270 138° Southeast 320 368 12,000 -2,160 Descending FlightAware
02:46AM 48.5840 11.0960 144° Southeast 313 360 10,100 -2,280 Descending FlightAware
02:46AM 48.5530 11.1270 146° Southeast 307 353 9,200 -2,220 Descending FlightAware
02:47AM 48.5190 11.1620 146° Southeast 303 349 8,100 -2,100 Descending FlightAware
02:47AM 48.4810 11.2010 146° Southeast 299 344 7,100 -1,740 Descending FlightAware
02:48AM 48.4640 11.2250 137° Southeast 281 323 6,800 -1,200 Descending FlightAware
02:48AM 48.4410 11.2610 134° Southeast 265 305 6,300 -1,320 Descending FlightAware
02:48AM 48.4160 11.3000 134° Southeast 257 296 5,600 -1,200 Descending FlightAware
02:49AM 48.4080 11.3110 138° Southeast 257 296 5,500 -1,080 Descending FlightAware
02:49AM 48.3830 11.3500 134° Southeast 256 295 4,900 -660 Descending FlightAware
02:50AM 48.3620 11.3810 136° Southeast 256 295 4,900  Level FlightAware
02:50AM 48.3340 11.4300 131° Southeast 249 287 4,900  Level FlightAware
02:50AM 48.3300 11.4550 104° East 242 278 4,900 -180 Level FlightAware
02:51AM 48.3270 11.4940 97° East 219 252 4,800 -480 Descending FlightAware
02:51AM 48.3230 11.5390 98° East 201 231 4,500 -840 Descending FlightAware
02:52AM 48.3200 11.5800 96° East 195 224 4,000 -720 Descending FlightAware
02:52AM 48.3170 11.6070 99° East 197 227 3,900 -300 Descending FlightAware
02:52AM 48.3200 11.6320 80° East 201 231 3,800 -720 Descending FlightAware
02:53AM 48.3220 11.6740 86° East 191 220 3,300 -1,140 Descending FlightAware
02:53AM 48.3250 11.7070 82° East 171 197 2,800 -1,020 Descending FlightAware
02:54AM 48.3270 11.7380 84° East 136 157 2,400 -780 Descending FlightAware
02:54AM 48.3290 11.7610 83° East 130 150 2,100 -780 Descending FlightAware
02:55AM 48.3310 11.7880 84° East 132 152 1,700 -840 Descending FlightAware
02:55AM 48.3320 11.8010 83° East 132 152 1,500 -840 Descending FlightAware